Cyprus Cement — C6UP5 — position and weather

sailwx.info

Track history (hours):
 
Tides and Currents Weather Stations Pressure Air Temp Water Temp Dewpoint Dewpoint Depression Visibility Wind Speed Wind Dir Waves Ship Positions

Cyprus Cement

Last reported at 2015-Mar-06 15:34 UTC. Time now 2015-Mar-06 16:06 UTC.
Position N 55°53' E 012°44'.

Length 97 m; draft 4.6 m.

Type: Cargo ship. MMSI: 311988000.

Date/timePositionNaut miles runAvg speedWind from/ knotsBaromVisibWave heightAir tempDewpointWater temp
2015-Mar-06 15:34N 55°53' E 012°44'1212.3
2015-Mar-06 14:33N 55°42' E 012°54'6 6.2
2015-Mar-06 13:32N 55°38' E 013°01'0 0.0
2015-Mar-06 12:29N 55°38' E 013°01'0 0.0
2015-Mar-06 11:32N 55°38' E 013°01'0 0.0
2015-Mar-06 10:32N 55°38' E 013°01'0 0.0
2015-Mar-06 09:32N 55°38' E 013°01'0 0.0
2015-Mar-06 08:32N 55°38' E 013°01'0 0.0
2015-Mar-06 07:32N 55°38' E 013°01'0 0.0
2015-Mar-06 06:26N 55°38' E 013°01'0 0.0
2015-Mar-06 05:32N 55°38' E 013°01'0 0.0
2015-Mar-06 04:32N 55°38' E 013°01'0 0.0
2015-Mar-06 03:32N 55°38' E 013°01'0 0.0
2015-Mar-06 02:32N 55°38' E 013°01'0 0.0
2015-Mar-06 01:32N 55°38' E 013°01'0 0.0
2015-Mar-06 00:32N 55°38' E 013°01'0 0.0
2015-Mar-05 23:32N 55°38' E 013°01'0 0.0
2015-Mar-05 22:32N 55°38' E 013°01'0 0.0
2015-Mar-05 21:32N 55°38' E 013°01'0 0.0
2015-Mar-05 20:32N 55°38' E 013°01'0 0.0
2015-Mar-05 19:32N 55°38' E 013°01'0 0.0
2015-Mar-05 18:32N 55°38' E 013°01'0 0.0
2015-Mar-05 17:29N 55°38' E 013°01'1 1.6
2015-Mar-05 16:33N 55°38' E 012°58'1010.1
2015-Mar-05 15:33N 55°31' E 012°45'1211.7
2015-Mar-05 14:34N 55°20' E 012°41'1111.1
2015-Mar-05 13:33N 55°15' E 012°59'1212.0
2015-Mar-05 12:33N 55°14' E 013°20'1211.9
2015-Mar-05 11:33N 55°14' E 013°41'1211.9
2015-Mar-05 10:33N 55°14' E 014°01'1111.1
2015-Mar-05 09:33N 55°16' E 014°20'1212.2
2015-Mar-05 08:33N 55°25' E 014°35'1211.9
2015-Mar-05 07:33N 55°32' E 014°52'1212.2
2015-Mar-05 06:33N 55°38' E 015°11'  
2015-Mar-01 04:24N 55°39' E 015°30'1012.5
2015-Mar-01 03:33N 55°35' E 015°13'1212.1
2015-Mar-01 02:33N 55°29' E 014°54'1212.2
2015-Mar-01 01:33N 55°23' E 014°36'1212.3
2015-Mar-01 00:33N 55°13' E 014°22'1110.7
2015-Feb-28 23:33N 55°11' E 014°04'1211.8
2015-Feb-28 22:33N 55°12' E 013°43'1211.9
2015-Feb-28 21:31N 55°13' E 013°22'1212.1
2015-Feb-28 20:33N 55°14' E 013°02'1111.4
2015-Feb-28 19:34N 55°17' E 012°42'9 9.5
2015-Feb-28 18:34N 55°26' E 012°40'1110.5
2015-Feb-28 17:33N 55°37' E 012°42'1110.9
2015-Feb-28 16:33N 55°48' E 012°42'1110.9
2015-Feb-28 15:33N 55°58' E 012°40'1110.6
2015-Feb-28 14:33N 56°07' E 012°30'1212.1
2015-Feb-28 13:33N 56°14' E 012°12'1110.7
2015-Feb-28 12:33N 56°23' E 012°02'1211.7
2015-Feb-28 11:33N 56°35' E 011°57'1212.0
2015-Feb-28 10:33N 56°46' E 011°51'1111.3
2015-Feb-28 09:33N 56°57' E 011°45'1111.3
2015-Feb-28 08:33N 57°08' E 011°37'1111.1
2015-Feb-28 07:34N 57°18' E 011°31'1111.0
2015-Feb-28 06:33N 57°28' E 011°23'1110.5
2015-Feb-28 05:33N 57°35' E 011°09'1111.2
2015-Feb-28 04:33N 57°43' E 010°54'1212.1
2015-Feb-28 03:33N 57°47' E 010°32'9012.6
2015-Feb-27 20:25N 57°00' E 008°11'1212.4
2015-Feb-27 19:27N 56°50' E 007°60'8612.1
2015-Feb-27 12:21N 55°26' E 007°21'810.7
2015-Feb-27 11:33N 55°18' E 007°22'1010.2
2015-Feb-27 10:33N 55°08' E 007°24'10 9.5
2015-Feb-27 09:33N 54°58' E 007°25'1412.1
2015-Feb-27 08:24N 54°44' E 007°28'1012.1
2015-Feb-27 07:33N 54°34' E 007°29'1212.2
2015-Feb-27 06:34N 54°22' E 007°32'1211.8
2015-Feb-27 05:33N 54°12' E 007°43'1111.4
2015-Feb-27 04:33N 54°05' E 007°58'1110.8
2015-Feb-27 03:33N 54°00' E 008°14'10 9.8
2015-Feb-27 02:33N 53°59' E 008°31'1010.4
2015-Feb-27 01:33N 53°52' E 008°44'1313.0
2015-Feb-27 00:34N 53°53' E 009°06'1111.4
2015-Feb-26 23:34N 53°47' E 009°23'1414.2
2015-Feb-26 22:33N 53°35' E 009°37'1211.7
2015-Feb-26 21:34N 53°32' E 009°56'3 2.9
2015-Feb-26 20:28N 53°30' E 009°57'0 0.0
2015-Feb-26 19:28N 53°30' E 009°57'0 0.0
2015-Feb-26 18:31N 53°30' E 009°57'0 0.0
2015-Feb-26 17:31N 53°30' E 009°57'0 0.0
2015-Feb-26 16:31N 53°30' E 009°57'0 0.0
2015-Feb-26 15:31N 53°30' E 009°57'0 0.0
2015-Feb-26 14:28N 53°30' E 009°57'0 0.0
2015-Feb-26 13:28N 53°30' E 009°57'0 0.0
2015-Feb-26 12:28N 53°30' E 009°57'0 0.0
2015-Feb-26 11:28N 53°30' E 009°57'0 0.0
2015-Feb-26 10:29N 53°30' E 009°57'0 0.0
2015-Feb-26 09:28N 53°30' E 009°57'0 0.0
2015-Feb-26 08:05N 53°30' E 009°57'0 0.0
2015-Feb-26 07:31N 53°30' E 009°57'0 0.0
2015-Feb-26 06:31N 53°30' E 009°57'0 0.0
2015-Feb-26 05:28N 53°30' E 009°57'0 0.0
2015-Feb-26 04:31N 53°30' E 009°57'0 0.0
2015-Feb-26 03:31N 53°30' E 009°57'0 0.0
2015-Feb-26 02:28N 53°30' E 009°57'0 0.0
2015-Feb-26 01:28N 53°30' E 009°57'0 0.0
2015-Feb-26 00:29N 53°30' E 009°57'0 0.0
2015-Feb-25 23:28N 53°30' E 009°57'0 0.0
2015-Feb-25 22:28N 53°30' E 009°57'0 0.0
2015-Feb-25 21:31N 53°30' E 009°57'0 0.0
2015-Feb-25 20:31N 53°30' E 009°57'0 0.0
2015-Feb-25 19:28N 53°30' E 009°57'0 0.0
2015-Feb-25 18:29N 53°30' E 009°57'0 0.0
2015-Feb-25 17:31N 53°30' E 009°57'0 0.0
2015-Feb-25 16:29N 53°30' E 009°57'0 0.0
2015-Feb-25 15:22N 53°30' E 009°57'0 0.0
2015-Feb-25 14:25N 53°30' E 009°57'0 0.0
2015-Feb-25 13:28N 53°30' E 009°57'0 0.0
2015-Feb-25 12:28N 53°30' E 009°57'0 0.0
2015-Feb-25 11:31N 53°30' E 009°57'0 0.0
2015-Feb-25 10:28N 53°30' E 009°57'0 0.0
2015-Feb-25 09:33N 53°30' E 009°57'5 5.2
2015-Feb-25 08:33N 53°33' E 009°50'1211.7
2015-Feb-25 07:33N 53°38' E 009°32'1312.5
2015-Feb-25 06:33N 53°49' E 009°22'1211.6
2015-Feb-25 05:33N 53°52' E 009°03'1312.7
2015-Feb-25 04:33N 53°54' E 008°42'1312.9
2015-Feb-25 03:34N 53°59' E 008°22'1110.7
2015-Feb-25 02:33N 53°59' E 008°04'7 7.4
2015-Feb-25 01:33N 54°03' E 007°54'9 8.9
2015-Feb-25 00:33N 54°08' E 007°41'9 8.8
2015-Feb-24 23:33N 54°15' E 007°32'10 9.5
2015-Feb-24 22:33N 54°24' E 007°27'1010.1
2015-Feb-24 21:33N 54°33' E 007°21'1110.7
2015-Feb-24 20:33N 54°44' E 007°15'1413.8
2015-Feb-24 19:33N 54°57' E 007°08'1111.2
2015-Feb-24 18:33N 55°07' E 007°02'1010.4
2015-Feb-24 17:33N 55°18' E 006°59'8 8.3
2015-Feb-24 16:33N 55°26' E 006°55'  
Track history (hours):
 
Tides and Currents Weather Stations Pressure Air Temp Water Temp Dewpoint Dewpoint Depression Visibility Wind Speed Wind Dir Waves Ship Positions

Cyprus Cement

Last reported at 2015-Mar-06 15:34 UTC. Time now 2015-Mar-06 16:06 UTC.
Position N 55°53' E 012°44'.

Length 97 m; draft 4.6 m.

Type: Cargo ship. MMSI: 311988000.

Date/timePositionNaut miles runAvg speedWind from/ knotsBaromVisibWave heightAir tempDewpointWater temp
2015-Mar-06 15:34N 55°53' E 012°44'1212.3
2015-Mar-06 14:33N 55°42' E 012°54'6 6.2
2015-Mar-06 13:32N 55°38' E 013°01'0 0.0
2015-Mar-06 12:29N 55°38' E 013°01'0 0.0
2015-Mar-06 11:32N 55°38' E 013°01'0 0.0
2015-Mar-06 10:32N 55°38' E 013°01'0 0.0
2015-Mar-06 09:32N 55°38' E 013°01'0 0.0
2015-Mar-06 08:32N 55°38' E 013°01'0 0.0
2015-Mar-06 07:32N 55°38' E 013°01'0 0.0
2015-Mar-06 06:26N 55°38' E 013°01'0 0.0
2015-Mar-06 05:32N 55°38' E 013°01'0 0.0
2015-Mar-06 04:32N 55°38' E 013°01'0 0.0
2015-Mar-06 03:32N 55°38' E 013°01'0 0.0
2015-Mar-06 02:32N 55°38' E 013°01'0 0.0
2015-Mar-06 01:32N 55°38' E 013°01'0 0.0
2015-Mar-06 00:32N 55°38' E 013°01'0 0.0
2015-Mar-05 23:32N 55°38' E 013°01'0 0.0
2015-Mar-05 22:32N 55°38' E 013°01'0 0.0
2015-Mar-05 21:32N 55°38' E 013°01'0 0.0
2015-Mar-05 20:32N 55°38' E 013°01'0 0.0
2015-Mar-05 19:32N 55°38' E 013°01'0 0.0
2015-Mar-05 18:32N 55°38' E 013°01'0 0.0
2015-Mar-05 17:29N 55°38' E 013°01'1 1.6
2015-Mar-05 16:33N 55°38' E 012°58'1010.1
2015-Mar-05 15:33N 55°31' E 012°45'1211.7
2015-Mar-05 14:34N 55°20' E 012°41'1111.1
2015-Mar-05 13:33N 55°15' E 012°59'1212.0
2015-Mar-05 12:33N 55°14' E 013°20'1211.9
2015-Mar-05 11:33N 55°14' E 013°41'1211.9
2015-Mar-05 10:33N 55°14' E 014°01'1111.1
2015-Mar-05 09:33N 55°16' E 014°20'1212.2
2015-Mar-05 08:33N 55°25' E 014°35'1211.9
2015-Mar-05 07:33N 55°32' E 014°52'1212.2
2015-Mar-05 06:33N 55°38' E 015°11'  
2015-Mar-01 04:24N 55°39' E 015°30'1012.5
2015-Mar-01 03:33N 55°35' E 015°13'1212.1
2015-Mar-01 02:33N 55°29' E 014°54'1212.2
2015-Mar-01 01:33N 55°23' E 014°36'1212.3
2015-Mar-01 00:33N 55°13' E 014°22'1110.7
2015-Feb-28 23:33N 55°11' E 014°04'1211.8
2015-Feb-28 22:33N 55°12' E 013°43'1211.9
2015-Feb-28 21:31N 55°13' E 013°22'1212.1
2015-Feb-28 20:33N 55°14' E 013°02'1111.4
2015-Feb-28 19:34N 55°17' E 012°42'9 9.5
2015-Feb-28 18:34N 55°26' E 012°40'1110.5
2015-Feb-28 17:33N 55°37' E 012°42'1110.9
2015-Feb-28 16:33N 55°48' E 012°42'1110.9
2015-Feb-28 15:33N 55°58' E 012°40'1110.6
2015-Feb-28 14:33N 56°07' E 012°30'1212.1
2015-Feb-28 13:33N 56°14' E 012°12'1110.7
2015-Feb-28 12:33N 56°23' E 012°02'1211.7
2015-Feb-28 11:33N 56°35' E 011°57'1212.0
2015-Feb-28 10:33N 56°46' E 011°51'1111.3
2015-Feb-28 09:33N 56°57' E 011°45'1111.3
2015-Feb-28 08:33N 57°08' E 011°37'1111.1
2015-Feb-28 07:34N 57°18' E 011°31'1111.0
2015-Feb-28 06:33N 57°28' E 011°23'1110.5
2015-Feb-28 05:33N 57°35' E 011°09'1111.2
2015-Feb-28 04:33N 57°43' E 010°54'1212.1
2015-Feb-28 03:33N 57°47' E 010°32'9012.6
2015-Feb-27 20:25N 57°00' E 008°11'1212.4
2015-Feb-27 19:27N 56°50' E 007°60'8612.1
2015-Feb-27 12:21N 55°26' E 007°21'810.7
2015-Feb-27 11:33N 55°18' E 007°22'1010.2
2015-Feb-27 10:33N 55°08' E 007°24'10 9.5
2015-Feb-27 09:33N 54°58' E 007°25'1412.1
2015-Feb-27 08:24N 54°44' E 007°28'1012.1
2015-Feb-27 07:33N 54°34' E 007°29'1212.2
2015-Feb-27 06:34N 54°22' E 007°32'1211.8
2015-Feb-27 05:33N 54°12' E 007°43'1111.4
2015-Feb-27 04:33N 54°05' E 007°58'1110.8
2015-Feb-27 03:33N 54°00' E 008°14'10 9.8
2015-Feb-27 02:33N 53°59' E 008°31'1010.4
2015-Feb-27 01:33N 53°52' E 008°44'1313.0
2015-Feb-27 00:34N 53°53' E 009°06'1111.4
2015-Feb-26 23:34N 53°47' E 009°23'1414.2
2015-Feb-26 22:33N 53°35' E 009°37'1211.7
2015-Feb-26 21:34N 53°32' E 009°56'3 2.9
2015-Feb-26 20:28N 53°30' E 009°57'0 0.0
2015-Feb-26 19:28N 53°30' E 009°57'0 0.0
2015-Feb-26 18:31N 53°30' E 009°57'0 0.0
2015-Feb-26 17:31N 53°30' E 009°57'0 0.0
2015-Feb-26 16:31N 53°30' E 009°57'0 0.0
2015-Feb-26 15:31N 53°30' E 009°57'0 0.0
2015-Feb-26 14:28N 53°30' E 009°57'0 0.0
2015-Feb-26 13:28N 53°30' E 009°57'0 0.0
2015-Feb-26 12:28N 53°30' E 009°57'0 0.0
2015-Feb-26 11:28N 53°30' E 009°57'0 0.0
2015-Feb-26 10:29N 53°30' E 009°57'0 0.0
2015-Feb-26 09:28N 53°30' E 009°57'0 0.0
2015-Feb-26 08:05N 53°30' E 009°57'0 0.0
2015-Feb-26 07:31N 53°30' E 009°57'0 0.0
2015-Feb-26 06:31N 53°30' E 009°57'0 0.0
2015-Feb-26 05:28N 53°30' E 009°57'0 0.0
2015-Feb-26 04:31N 53°30' E 009°57'0 0.0
2015-Feb-26 03:31N 53°30' E 009°57'0 0.0
2015-Feb-26 02:28N 53°30' E 009°57'0 0.0
2015-Feb-26 01:28N 53°30' E 009°57'0 0.0
2015-Feb-26 00:29N 53°30' E 009°57'0 0.0
2015-Feb-25 23:28N 53°30' E 009°57'0 0.0
2015-Feb-25 22:28N 53°30' E 009°57'0 0.0
2015-Feb-25 21:31N 53°30' E 009°57'0 0.0
2015-Feb-25 20:31N 53°30' E 009°57'0 0.0
2015-Feb-25 19:28N 53°30' E 009°57'0 0.0
2015-Feb-25 18:29N 53°30' E 009°57'0 0.0
2015-Feb-25 17:31N 53°30' E 009°57'0 0.0
2015-Feb-25 16:29N 53°30' E 009°57'0 0.0
2015-Feb-25 15:22N 53°30' E 009°57'0 0.0
2015-Feb-25 14:25N 53°30' E 009°57'0 0.0
2015-Feb-25 13:28N 53°30' E 009°57'0 0.0
2015-Feb-25 12:28N 53°30' E 009°57'0 0.0
2015-Feb-25 11:31N 53°30' E 009°57'0 0.0
2015-Feb-25 10:28N 53°30' E 009°57'0 0.0
2015-Feb-25 09:33N 53°30' E 009°57'5 5.2
2015-Feb-25 08:33N 53°33' E 009°50'1211.7
2015-Feb-25 07:33N 53°38' E 009°32'1312.5
2015-Feb-25 06:33N 53°49' E 009°22'1211.6
2015-Feb-25 05:33N 53°52' E 009°03'1312.7
2015-Feb-25 04:33N 53°54' E 008°42'1312.9
2015-Feb-25 03:34N 53°59' E 008°22'1110.7
2015-Feb-25 02:33N 53°59' E 008°04'7 7.4
2015-Feb-25 01:33N 54°03' E 007°54'9 8.9
2015-Feb-25 00:33N 54°08' E 007°41'9 8.8
2015-Feb-24 23:33N 54°15' E 007°32'10 9.5
2015-Feb-24 22:33N 54°24' E 007°27'1010.1
2015-Feb-24 21:33N 54°33' E 007°21'1110.7
2015-Feb-24 20:33N 54°44' E 007°15'1413.8
2015-Feb-24 19:33N 54°57' E 007°08'1111.2
2015-Feb-24 18:33N 55°07' E 007°02'1010.4
2015-Feb-24 17:33N 55°18' E 006°59'8 8.3
2015-Feb-24 16:33N 55°26' E 006°55'  

Dump ship's entire track history